Time;durP1;ratioP1;P1;durP2;ratioP2;P2;SDS_P1;SDS_P2;PMS_P1;PMS_P2;Temp;Humidity;BMP_temperature;BMP_pressure;BME280_temperature;BME280_humidity;BME280_pressure;Samples;Min_cycle;Max_cycle;Signal;HPM_P1;HPM_P2
2022/09/05 00:00:03;;;;;;;6.63;5.77;;;18.10;99.90;;;;;;4985876;28;20222;-87
2022/09/05 00:02:59;;;;;;;9.00;6.50;;;18.00;99.90;;;;;;4989495;28;20706;-85
2022/09/05 00:05:58;;;;;;;7.80;7.00;;;18.00;99.90;;;;;;4995838;28;20217;-86
2022/09/05 00:08:41;;;;;;;10.07;6.47;;;18.00;99.90;;;;;;4990281;28;20264;-86
2022/09/05 00:11:35;;;;;;;7.40;6.70;;;17.90;99.90;;;;;;4982419;28;20234;-86
2022/09/05 00:14:18;;;;;;;9.47;7.07;;;17.80;99.90;;;;;;4996488;28;20310;-86
2022/09/05 00:17:40;;;;;;;8.97;7.93;;;17.80;99.90;;;;;;4994086;28;20237;-85
2022/09/05 00:20:30;;;;;;;9.47;7.77;;;17.70;99.90;;;;;;4980842;28;20221;-85
2022/09/05 00:23:53;;;;;;;9.60;7.40;;;17.70;99.90;;;;;;4987414;28;20211;-84
2022/09/05 00:27:11;;;;;;;9.80;8.33;;;17.70;99.90;;;;;;4988534;28;20301;-85
2022/09/05 00:30:09;;;;;;;8.60;7.73;;;17.60;99.90;;;;;;5002028;28;20706;-85
2022/09/05 00:33:11;;;;;;;12.60;9.17;;;17.70;99.90;;;;;;5004926;28;20864;-85
2022/09/05 00:35:52;;;;;;;12.93;9.57;;;17.70;99.90;;;;;;4989562;28;20210;-86
2022/09/05 00:38:27;;;;;;;12.67;8.90;;;17.70;99.90;;;;;;4989651;28;20213;-86
2022/09/05 00:41:08;;;;;;;9.20;8.23;;;17.70;99.90;;;;;;5010364;28;20203;-86
2022/09/05 00:43:43;;;;;;;11.23;8.50;;;17.70;99.90;;;;;;4987429;28;20246;-85
2022/09/05 00:46:17;;;;;;;9.00;8.13;;;17.80;99.90;;;;;;5007698;28;20218;-87
2022/09/05 00:49:10;;;;;;;9.93;8.43;;;17.70;99.90;;;;;;5012154;28;20206;-87
2022/09/05 00:51:43;;;;;;;9.13;7.83;;;17.70;99.90;;;;;;4994089;28;20329;-86
2022/09/05 00:54:19;;;;;;;8.20;7.20;;;17.70;99.90;;;;;;4985245;28;20203;-86
2022/09/05 00:57:36;;;;;;;10.83;8.03;;;17.80;99.90;;;;;;5006304;28;20253;-87
2022/09/05 01:00:11;;;;;;;11.33;8.03;;;17.80;99.90;;;;;;5001765;28;20905;-86
2022/09/05 01:03:11;;;;;;;9.80;8.30;;;17.70;99.90;;;;;;4986924;28;20234;-85
2022/09/05 01:06:03;;;;;;;9.00;8.10;;;17.80;99.90;;;;;;4972154;28;20228;-87
2022/09/05 01:08:49;;;;;;;11.50;7.60;;;17.70;99.90;;;;;;5000135;28;20623;-86
2022/09/05 01:11:42;;;;;;;10.07;8.13;;;17.70;99.90;;;;;;5011258;28;20211;-86
2022/09/05 01:14:38;;;;;;;10.10;8.17;;;17.70;99.90;;;;;;4993794;28;20276;-87
2022/09/05 01:17:18;;;;;;;12.30;7.47;;;17.60;99.90;;;;;;5017130;28;20238;-86
2022/09/05 01:20:08;;;;;;;9.23;7.57;;;17.60;99.90;;;;;;5008525;28;20222;-86
2022/09/05 01:23:02;;;;;;;9.07;7.03;;;17.50;99.90;;;;;;4980233;28;20266;-86
2022/09/05 01:25:53;;;;;;;10.57;7.17;;;17.40;99.90;;;;;;4992442;28;20246;-86
2022/09/05 01:28:24;;;;;;;9.27;7.00;;;17.40;99.90;;;;;;4978503;28;20211;-85
2022/09/05 01:31:19;;;;;;;9.60;7.20;;;17.50;99.90;;;;;;4995133;28;20246;-85
2022/09/05 01:34:15;;;;;;;7.83;6.87;;;17.30;99.90;;;;;;5008540;28;20207;-86
2022/09/05 01:37:38;;;;;;;8.70;6.80;;;17.20;99.90;;;;;;4989590;28;20215;-88
2022/09/05 01:40:29;;;;;;;8.83;7.30;;;17.10;99.90;;;;;;4963385;28;20668;-85
2022/09/05 01:43:17;;;;;;;8.93;6.97;;;17.10;99.90;;;;;;4982569;28;20234;-86
2022/09/05 01:45:58;;;;;;;9.17;6.60;;;17.10;99.90;;;;;;4983916;28;20218;-86
2022/09/05 01:48:29;;;;;;;8.63;7.00;;;17.10;99.90;;;;;;4980305;28;20646;-85
2022/09/05 01:51:33;;;;;;;7.30;6.53;;;17.10;99.90;;;;;;4984261;28;20221;-86
2022/09/05 01:54:21;;;;;;;8.00;7.17;;;17.00;99.90;;;;;;4965260;28;20206;-87
2022/09/05 01:56:52;;;;;;;8.33;7.20;;;17.00;99.90;;;;;;4996846;28;20667;-86
2022/09/05 01:59:36;;;;;;;9.97;7.10;;;17.00;99.90;;;;;;4986795;28;20206;-86
2022/09/05 02:02:21;;;;;;;9.00;7.10;;;17.00;99.90;;;;;;5004503;28;20207;-86
2022/09/05 02:05:08;;;;;;;9.73;6.87;;;16.90;99.90;;;;;;5016204;28;20232;-86
2022/09/05 02:08:14;;;;;;;9.87;6.97;;;16.90;99.90;;;;;;4980763;28;20467;-84
2022/09/05 02:10:47;;;;;;;9.60;6.90;;;16.90;99.90;;;;;;5003440;28;20630;-85
2022/09/05 02:13:24;;;;;;;9.20;7.17;;;16.80;99.90;;;;;;5010683;28;20215;-86
2022/09/05 02:16:17;;;;;;;10.30;7.50;;;16.80;99.90;;;;;;4999156;28;20241;-86
2022/09/05 02:19:11;;;;;;;11.33;8.40;;;16.80;99.90;;;;;;4976915;28;20223;-85
2022/09/05 02:21:56;;;;;;;10.90;8.93;;;16.70;99.90;;;;;;4995526;28;20323;-85
2022/09/05 02:24:37;;;;;;;12.13;7.67;;;16.70;99.90;;;;;;4996581;28;20712;-85
2022/09/05 02:27:15;;;;;;;10.20;8.20;;;16.60;99.90;;;;;;4997563;28;20612;-85
2022/09/05 02:30:19;;;;;;;10.50;8.90;;;16.60;99.90;;;;;;4945381;28;1407250;-86
2022/09/05 02:32:56;;;;;;;10.23;8.67;;;16.50;99.90;;;;;;4993242;28;20314;-87
2022/09/05 02:35:41;;;;;;;11.03;8.87;;;16.50;99.90;;;;;;5008284;28;20206;-84
2022/09/05 02:38:27;;;;;;;10.20;7.87;;;16.40;99.90;;;;;;4987055;28;20219;-84
2022/09/05 02:41:48;;;;;;;12.67;9.50;;;16.30;99.90;;;;;;5011242;28;20632;-85
2022/09/05 02:45:20;;;;;;;11.50;9.70;;;16.30;99.90;;;;;;4990123;28;20210;-86
2022/09/05 02:47:55;;;;;;;9.50;8.40;;;16.20;99.90;;;;;;4974785;28;20220;-86
2022/09/05 02:51:07;;;;;;;12.10;8.30;;;16.20;99.90;;;;;;4982004;28;20207;-84
2022/09/05 02:54:18;;;;;;;11.77;9.30;;;16.10;99.90;;;;;;4990893;28;20587;-86
2022/09/05 02:57:34;;;;;;;12.37;8.80;;;16.20;99.90;;;;;;5000831;28;20238;-84
2022/09/05 03:00:35;;;;;;;10.40;8.13;;;16.10;99.90;;;;;;4988137;28;20217;-86
2022/09/05 03:03:03;;;;;;;9.87;7.70;;;16.10;99.90;;;;;;5006985;28;20206;-85
2022/09/05 03:05:55;;;;;;;8.50;7.57;;;16.00;99.90;;;;;;4994604;28;20215;-86
2022/09/05 03:09:00;;;;;;;8.17;7.27;;;16.10;99.90;;;;;;4991908;28;20233;-86
2022/09/05 03:12:05;;;;;;;9.43;7.67;;;16.10;99.90;;;;;;5000001;28;20214;-86
2022/09/05 03:15:34;;;;;;;10.80;8.80;;;16.20;99.90;;;;;;5000558;28;20210;-86
2022/09/05 03:18:34;;;;;;;12.07;9.80;;;16.10;99.90;;;;;;4984281;28;20245;-85
2022/09/05 03:21:02;;;;;;;11.13;9.10;;;16.00;99.90;;;;;;5000045;28;20247;-85
2022/09/05 03:23:50;;;;;;;9.30;7.83;;;15.80;99.90;;;;;;4991799;28;20212;-85
2022/09/05 03:26:35;;;;;;;10.07;8.00;;;15.90;99.90;;;;;;4990474;28;20306;-87
2022/09/05 03:29:33;;;;;;;8.73;7.23;;;15.90;99.90;;;;;;5009136;28;20231;-85
2022/09/05 03:32:22;;;;;;;10.33;8.30;;;15.90;99.90;;;;;;5002398;28;20236;-85
2022/09/05 03:35:29;;;;;;;9.30;7.80;;;15.90;99.90;;;;;;5001396;28;20214;-86
2022/09/05 03:38:31;;;;;;;;;;;;;;;;;;;;;
2022/09/05 03:41:35;;;;;;;11.97;8.00;;;15.90;99.90;;;;;;5020110;28;20214;-85
2022/09/05 03:44:22;;;;;;;9.73;8.33;;;15.80;99.90;;;;;;5006643;28;20270;-86
2022/09/05 03:46:56;;;;;;;9.87;7.90;;;15.90;99.90;;;;;;5007903;28;20240;-85
2022/09/05 03:49:48;;;;;;;10.43;8.23;;;15.90;99.90;;;;;;5005733;28;20212;-85
2022/09/05 03:53:02;;;;;;;11.90;8.23;;;15.80;99.90;;;;;;5001633;28;20345;-86
2022/09/05 03:56:01;;;;;;;10.60;8.53;;;15.90;99.90;;;;;;5004849;28;20713;-86
2022/09/05 03:59:01;;;;;;;12.87;9.70;;;15.80;99.90;;;;;;5003578;28;20216;-86
2022/09/05 04:01:43;;;;;;;10.63;8.40;;;15.80;99.90;;;;;;5005367;28;20242;-85
2022/09/05 04:04:59;;;;;;;10.97;8.60;;;15.80;99.90;;;;;;5006757;28;20221;-86
2022/09/05 04:07:59;;;;;;;10.33;7.80;;;15.80;99.90;;;;;;5008310;28;21068;-86
2022/09/05 04:11:10;;;;;;;9.33;7.23;;;15.70;99.90;;;;;;5003879;28;20856;-85
2022/09/05 04:13:58;;;;;;;9.87;7.67;;;15.70;99.90;;;;;;5012012;28;20294;-85
2022/09/05 04:16:44;;;;;;;11.07;9.10;;;15.70;99.90;;;;;;5006656;28;20214;-86
2022/09/05 04:19:34;;;;;;;10.37;8.80;;;15.60;99.90;;;;;;5001938;28;20211;-86
2022/09/05 04:22:29;;;;;;;10.63;8.43;;;15.60;99.90;;;;;;5000542;28;20215;-86
2022/09/05 04:25:06;;;;;;;10.33;7.67;;;15.60;99.90;;;;;;5006138;28;20285;-85
2022/09/05 04:27:36;;;;;;;11.40;9.07;;;15.60;99.90;;;;;;5009779;28;20210;-84
2022/09/05 04:30:26;;;;;;;10.90;8.17;;;15.50;99.90;;;;;;5003713;28;20251;-86
2022/09/05 04:33:23;;;;;;;10.63;8.07;;;15.50;99.90;;;;;;5029034;28;20956;-85
2022/09/05 04:36:17;;;;;;;10.30;7.83;;;15.50;99.90;;;;;;5017161;28;20232;-85
2022/09/05 04:39:16;;;;;;;10.93;8.20;;;15.40;99.90;;;;;;5009470;28;20631;-85
2022/09/05 04:41:57;;;;;;;11.27;8.80;;;15.40;99.90;;;;;;5002974;28;20309;-86
2022/09/05 04:44:28;;;;;;;11.07;9.30;;;15.40;99.90;;;;;;5018890;28;20588;-85
2022/09/05 04:47:18;;;;;;;11.97;9.30;;;15.30;99.90;;;;;;5013048;28;20737;-85
2022/09/05 04:50:18;;;;;;;12.17;9.40;;;15.30;99.90;;;;;;5014477;28;20746;-86
2022/09/05 04:53:14;;;;;;;11.17;8.67;;;15.50;99.90;;;;;;5006764;28;20257;-87
2022/09/05 04:55:56;;;;;;;14.77;9.43;;;15.40;99.90;;;;;;5002906;28;20210;-85
2022/09/05 04:59:00;;;;;;;13.30;9.47;;;15.30;99.90;;;;;;5015608;28;20888;-84
2022/09/05 05:02:18;;;;;;;11.73;9.77;;;15.30;99.90;;;;;;5007562;28;20190;-86
2022/09/05 05:05:39;;;;;;;13.33;9.23;;;15.30;99.90;;;;;;5027762;28;20225;-87
2022/09/05 05:09:33;;;;;;;;;;;;;;;;;;;;;
2022/09/05 05:12:38;;;;;;;14.40;11.20;;;15.30;99.90;;;;;;5020483;28;20237;-85
2022/09/05 05:15:36;;;;;;;13.93;10.80;;;15.30;99.90;;;;;;5033657;28;20246;-86
2022/09/05 05:18:55;;;;;;;13.47;11.13;;;15.10;99.90;;;;;;5026382;28;20214;-86
2022/09/05 05:21:53;;;;;;;17.93;13.10;;;15.40;99.90;;;;;;5022221;28;20219;-86
2022/09/05 05:24:31;;;;;;;17.43;12.90;;;15.40;99.90;;;;;;4996716;28;20203;-87
2022/09/05 05:27:24;;;;;;;18.20;14.67;;;15.50;99.90;;;;;;5010381;28;20198;-86
2022/09/05 05:30:28;;;;;;;19.27;12.57;;;15.50;99.90;;;;;;5029014;28;20552;-86
2022/09/05 05:36:35;;;;;;;16.07;12.63;;;15.60;99.90;;;;;;4980120;28;20221;-80
2022/09/05 05:39:35;;;;;;;18.77;13.50;;;15.60;99.90;;;;;;4979422;28;20206;-78
2022/09/05 05:42:03;;;;;;;17.10;13.63;;;16.40;99.90;;;;;;4989088;28;20211;-80
2022/09/05 05:45:04;;;;;;;;;;;;;;;;;;;;;
2022/09/05 05:47:46;;;;;;;18.00;13.77;;;15.70;99.90;;;;;;4996959;28;20299;-81
2022/09/05 05:50:33;;;;;;;31.50;14.33;;;15.80;99.90;;;;;;4985953;28;20217;-80
2022/09/05 05:53:27;;;;;;;37.23;14.70;;;15.90;99.90;;;;;;4975831;28;20232;-79
2022/09/05 05:56:38;;;;;;;31.57;16.13;;;16.00;99.90;;;;;;4997511;28;20218;-85
2022/09/05 05:59:54;;;;;;;32.40;16.47;;;16.10;99.90;;;;;;4989924;28;20207;-86
2022/09/05 06:02:58;;;;;;;30.03;17.43;;;16.10;99.90;;;;;;5014019;28;20214;-87
2022/09/05 06:06:27;;;;;;;;;;;;;;;;;;;;;
2022/09/05 06:09:24;;;;;;;33.50;17.50;;;16.30;99.90;;;;;;5021812;28;20207;-85
2022/09/05 06:13:07;;;;;;;36.77;19.30;;;16.40;99.90;;;;;;4987208;28;20219;-85
2022/09/05 06:16:16;;;;;;;35.33;21.60;;;16.50;99.90;;;;;;5017815;28;20194;-85
2022/09/05 06:19:03;;;;;;;29.90;19.20;;;16.60;99.90;;;;;;5007780;28;20214;-86
2022/09/05 06:21:50;;;;;;;38.93;20.73;;;16.60;99.90;;;;;;5005476;28;20232;-85
2022/09/05 06:25:00;;;;;;;35.13;21.33;;;16.70;99.90;;;;;;5007578;28;20206;-86
2022/09/05 06:28:13;;;;;;;32.73;21.43;;;16.70;99.90;;;;;;4965139;28;20211;-85
2022/09/05 06:31:22;;;;;;;31.83;22.30;;;16.90;99.90;;;;;;5008545;28;20625;-84
2022/09/05 06:34:42;;;;;;;41.80;25.40;;;16.90;99.90;;;;;;5006556;28;20248;-83
2022/09/05 06:37:53;;;;;;;38.40;26.00;;;17.10;99.90;;;;;;5018130;28;20217;-84
2022/09/05 06:43:53;;;;;;;43.17;24.77;;;17.50;99.90;;;;;;5012835;28;20273;-85
2022/09/05 06:46:42;;;;;;;33.80;24.00;;;17.70;99.90;;;;;;5016649;28;20270;-86
2022/09/05 06:50:09;;;;;;;38.05;23.40;;;18.30;99.90;;;;;;5019167;28;20218;-85
2022/09/05 06:53:05;;;;;;;30.80;21.45;;;19.50;99.90;;;;;;5026087;28;20773;-85
2022/09/05 06:56:07;;;;;;;26.02;22.17;;;20.90;99.90;;;;;;5025862;28;20202;-85
2022/09/05 06:59:19;;;;;;;27.33;21.58;;;22.40;99.90;;;;;;5033049;28;20245;-85
2022/09/05 07:02:23;;;;;;;28.70;22.45;;;23.60;99.90;;;;;;5036945;28;20222;-85
2022/09/05 07:05:19;;;;;;;25.13;20.80;;;24.50;99.90;;;;;;5018376;28;20186;-87
2022/09/05 07:08:25;;;;;;;28.33;21.92;;;25.30;99.90;;;;;;5040747;28;20215;-86
2022/09/05 07:11:27;;;;;;;24.90;22.40;;;25.70;99.90;;;;;;5034605;28;20209;-86
2022/09/05 07:14:36;;;;;;;25.83;21.50;;;26.20;99.90;;;;;;5036180;28;20194;-86
2022/09/05 07:17:41;;;;;;;25.48;20.65;;;26.50;99.90;;;;;;5023471;28;20250;-86
2022/09/05 07:21:15;;;;;;;26.00;21.90;;;26.90;99.90;;;;;;5003371;28;20203;-86
2022/09/05 07:24:21;;;;;;;24.35;21.75;;;27.40;99.90;;;;;;4997409;28;20218;-87
2022/09/05 07:27:10;;;;;;;23.48;21.08;;;27.70;99.90;;;;;;4992475;28;20218;-85
2022/09/05 07:29:46;;;;;;;25.25;22.55;;;28.00;99.90;;;;;;4998182;28;20238;-85
2022/09/05 07:32:46;;;;;;;23.67;20.73;;;28.20;99.90;;;;;;4998678;28;20238;-85
2022/09/05 07:35:31;;;;;;;23.05;20.65;;;28.20;99.90;;;;;;4994911;28;20200;-86
2022/09/05 07:38:17;;;;;;;23.48;20.50;;;28.40;99.90;;;;;;5021815;28;20234;-85
2022/09/05 07:40:52;;;;;;;21.30;18.75;;;28.60;99.90;;;;;;5005123;28;20199;-87
2022/09/05 07:43:32;;;;;;;23.98;19.95;;;28.80;99.90;;;;;;5001215;28;20242;-86
2022/09/05 07:46:00;;;;;;;18.85;16.95;;;28.80;99.90;;;;;;5002937;28;20234;-86
2022/09/05 07:48:34;;;;;;;20.83;17.60;;;28.80;99.90;;;;;;5020664;28;20258;-86
2022/09/05 07:51:08;;;;;;;17.20;15.38;;;28.80;99.90;;;;;;4998053;28;20203;-87
2022/09/05 07:54:09;;;;;;;17.95;16.20;;;28.80;99.90;;;;;;5009936;28;20241;-88
2022/09/05 07:57:04;;;;;;;19.58;17.00;;;29.00;99.90;;;;;;4985249;28;20243;-86
2022/09/05 08:00:03;;;;;;;19.10;16.27;;;29.10;99.90;;;;;;5013820;28;20222;-85
2022/09/05 08:02:51;;;;;;;17.38;14.63;;;29.40;99.90;;;;;;4987852;28;20211;-86
2022/09/05 08:05:25;;;;;;;20.25;16.08;;;29.90;99.90;;;;;;4982399;28;20279;-85
2022/09/05 08:08:07;;;;;;;16.73;15.02;;;30.20;99.90;;;;;;4972661;28;20215;-84
2022/09/05 08:11:21;;;;;;;16.42;14.73;;;30.60;99.90;;;;;;4986098;28;20266;-86
2022/09/05 08:13:56;;;;;;;16.88;12.90;;;30.90;99.90;;;;;;5000998;28;20238;-85
2022/09/05 08:16:46;;;;;;;14.30;12.80;;;31.10;99.90;;;;;;4999523;28;20218;-86
2022/09/05 08:19:41;;;;;;;14.80;13.20;;;31.50;99.90;;;;;;5009256;28;20219;-85
2022/09/05 08:22:20;;;;;;;17.38;14.43;;;31.70;99.90;;;;;;4980739;28;20233;-87
2022/09/05 08:25:14;;;;;;;16.25;14.20;;;32.00;99.90;;;;;;4987602;28;20238;-87
2022/09/05 08:28:05;;;;;;;15.85;14.18;;;32.30;99.40;;;;;;4977988;28;20292;-86
2022/09/05 08:30:44;;;;;;;15.45;13.90;;;32.40;98.80;;;;;;4989179;28;20304;-86
2022/09/05 08:33:31;;;;;;;17.48;13.98;;;32.40;98.10;;;;;;5000374;28;20223;-85
2022/09/05 08:36:30;;;;;;;15.02;13.48;;;32.60;98.00;;;;;;4987385;28;20275;-85
2022/09/05 08:39:00;;;;;;;14.45;12.90;;;32.80;96.80;;;;;;5006801;28;20627;-86
2022/09/05 08:41:56;;;;;;;13.27;11.13;;;32.90;96.90;;;;;;4986412;28;20230;-85
2022/09/05 08:44:47;;;;;;;13.50;11.50;;;32.90;96.20;;;;;;5004174;28;20257;-86
2022/09/05 08:47:59;;;;;;;14.55;12.38;;;33.00;95.80;;;;;;5004909;28;20242;-86
2022/09/05 08:50:29;;;;;;;12.95;10.98;;;33.10;94.70;;;;;;5000881;28;20306;-87
2022/09/05 08:53:15;;;;;;;13.30;10.90;;;33.20;94.20;;;;;;4985716;28;20243;-85
2022/09/05 08:56:18;;;;;;;7.78;7.07;;;33.40;93.80;;;;;;4990738;28;20265;-86
2022/09/05 08:59:23;;;;;;;8.10;6.95;;;33.40;92.70;;;;;;5001162;28;20666;-86
2022/09/05 09:02:23;;;;;;;10.60;7.63;;;33.20;92.30;;;;;;4999538;28;20250;-85
2022/09/05 09:05:35;;;;;;;6.18;5.57;;;33.20;92.50;;;;;;4982256;28;20294;-86
2022/09/05 09:08:56;;;;;;;6.35;5.75;;;33.00;92.20;;;;;;5005000;28;20733;-86
2022/09/05 09:11:41;;;;;;;5.50;4.55;;;33.00;91.90;;;;;;4999961;28;20220;-86
2022/09/05 09:14:36;;;;;;;5.68;5.13;;;33.00;91.70;;;;;;4983519;28;20231;-85
2022/09/05 09:17:44;;;;;;;5.43;4.93;;;33.00;91.10;;;;;;5001940;28;20203;-85
2022/09/05 09:20:17;;;;;;;6.20;4.32;;;32.90;91.20;;;;;;4891639;29;20205;-83
2022/09/05 09:22:54;;;;;;;8.85;4.95;;;32.70;91.40;;;;;;4989524;28;20224;-84
2022/09/05 09:25:30;;;;;;;5.72;3.92;;;32.50;91.20;;;;;;4987633;28;20271;-83
2022/09/05 09:28:38;;;;;;;7.65;4.45;;;32.30;91.40;;;;;;4998794;28;20237;-84
2022/09/05 09:31:38;;;;;;;9.77;4.10;;;32.20;91.40;;;;;;5010567;28;20246;-84
2022/09/05 09:34:08;;;;;;;4.88;4.30;;;31.90;91.60;;;;;;5010211;28;20238;-84
2022/09/05 09:37:02;;;;;;;6.78;4.07;;;31.70;91.70;;;;;;5018546;28;20340;-84
2022/09/05 09:39:35;;;;;;;6.38;4.15;;;31.60;91.60;;;;;;5029796;28;20215;-84
2022/09/05 09:42:38;;;;;;;5.25;3.75;;;31.60;91.70;;;;;;5014086;28;20229;-84
2022/09/05 09:45:27;;;;;;;4.72;3.20;;;31.60;91.40;;;;;;5024220;28;20217;-84
2022/09/05 09:48:01;;;;;;;5.45;4.15;;;31.70;92.10;;;;;;5027301;28;20203;-84
2022/09/05 09:50:50;;;;;;;5.65;3.10;;;31.90;91.50;;;;;;5003146;28;20328;-84
2022/09/05 09:54:01;;;;;;;2.75;2.47;;;32.10;90.90;;;;;;5009092;28;20233;-85
2022/09/05 09:57:06;;;;;;;5.03;2.97;;;32.30;90.70;;;;;;5020939;28;20218;-85
2022/09/05 09:59:48;;;;;;;3.83;3.47;;;32.40;90.10;;;;;;5016143;28;20204;-84
2022/09/05 10:02:59;;;;;;;3.58;3.28;;;32.50;89.00;;;;;;5004864;28;20206;-83
2022/09/05 10:06:30;;;;;;;4.72;3.20;;;32.50;88.10;;;;;;5013438;28;20841;-84
2022/09/05 10:09:47;;;;;;;5.53;2.65;;;32.40;87.90;;;;;;4998031;28;20214;-85
2022/09/05 10:13:05;;;;;;;4.75;2.90;;;32.50;88.10;;;;;;4992271;28;20225;-86
2022/09/05 10:15:53;;;;;;;3.95;2.80;;;32.50;88.00;;;;;;4999218;28;20738;-83
2022/09/05 10:18:53;;;;;;;3.70;2.22;;;32.40;86.90;;;;;;5019358;28;20237;-83
2022/09/05 10:21:38;;;;;;;2.85;2.28;;;32.30;85.90;;;;;;5025815;28;20229;-82
2022/09/05 10:24:29;;;;;;;3.30;2.17;;;32.20;85.70;;;;;;5018116;28;20631;-83
2022/09/05 10:27:21;;;;;;;3.60;2.65;;;32.10;86.30;;;;;;5014076;28;20250;-83
2022/09/05 10:29:53;;;;;;;3.40;2.55;;;32.10;85.20;;;;;;5016171;28;20226;-82
2022/09/05 10:32:32;;;;;;;3.97;2.30;;;32.10;85.40;;;;;;5010483;28;20225;-82
2022/09/05 10:35:31;;;;;;;3.95;2.47;;;32.20;85.60;;;;;;4985239;28;20765;-83
2022/09/05 10:38:17;;;;;;;4.40;2.40;;;32.20;85.20;;;;;;4992083;28;20868;-82
2022/09/05 10:40:49;;;;;;;3.03;2.42;;;32.10;85.00;;;;;;5001189;28;20211;-82
2022/09/05 10:44:01;;;;;;;2.70;2.47;;;31.90;84.60;;;;;;4986863;28;20207;-83
2022/09/05 10:46:31;;;;;;;2.15;2.00;;;31.90;84.20;;;;;;4987955;28;20221;-84
2022/09/05 10:49:25;;;;;;;2.42;1.92;;;31.90;83.20;;;;;;5010702;28;20222;-84
2022/09/05 10:52:10;;;;;;;3.30;1.83;;;31.80;81.90;;;;;;4992102;28;20589;-84
2022/09/05 10:55:13;;;;;;;2.60;2.00;;;31.80;82.00;;;;;;4986134;28;20238;-85
2022/09/05 10:58:23;;;;;;;4.90;2.20;;;31.70;81.40;;;;;;4967339;28;20212;-84
2022/09/05 11:01:34;;;;;;;3.75;1.90;;;31.70;80.00;;;;;;5002187;28;20198;-81
2022/09/05 11:04:33;;;;;;;2.60;1.85;;;31.70;79.90;;;;;;5002388;28;20614;-83
2022/09/05 11:07:51;;;;;;;6.15;2.13;;;31.80;80.50;;;;;;5012363;28;20227;-84
2022/09/05 11:10:48;;;;;;;4.30;1.95;;;31.90;80.30;;;;;;5012684;28;20202;-85
2022/09/05 11:13:19;;;;;;;5.57;2.03;;;31.90;78.80;;;;;;5017448;28;20233;-84
2022/09/05 11:16:08;;;;;;;3.17;2.20;;;31.90;78.30;;;;;;4990028;28;20274;-84
2022/09/05 11:19:22;;;;;;;4.25;2.20;;;32.10;79.40;;;;;;4996408;28;20265;-83
2022/09/05 11:22:00;;;;;;;3.17;2.10;;;32.20;78.10;;;;;;4987942;28;20222;-84
2022/09/05 11:24:58;;;;;;;2.25;1.90;;;32.20;77.60;;;;;;4987016;28;20214;-84
2022/09/05 11:27:30;;;;;;;9.88;2.13;;;32.20;77.00;;;;;;4998101;28;20203;-83
2022/09/05 11:30:09;;;;;;;2.47;1.83;;;32.20;77.10;;;;;;5001010;28;20238;-84
2022/09/05 11:33:08;;;;;;;4.55;2.28;;;32.20;76.70;;;;;;4987746;28;20284;-86
2022/09/05 11:36:08;;;;;;;2.90;2.28;;;32.10;75.20;;;;;;4978203;28;20219;-85
2022/09/05 11:39:08;;;;;;;2.53;2.00;;;32.00;75.30;;;;;;4997651;28;20206;-85
2022/09/05 11:42:16;;;;;;;2.92;1.80;;;32.00;77.70;;;;;;4988620;28;20663;-84
2022/09/05 11:45:25;;;;;;;3.10;1.75;;;32.10;77.80;;;;;;5000389;28;20206;-84
2022/09/05 11:48:34;;;;;;;3.45;2.10;;;32.40;76.00;;;;;;4988731;28;20683;-83
2022/09/05 11:51:19;;;;;;;2.65;1.98;;;32.50;75.60;;;;;;4957442;28;20274;-86
2022/09/05 11:54:30;;;;;;;4.13;1.92;;;32.60;74.60;;;;;;5001309;28;20285;-84
2022/09/05 11:57:34;;;;;;;2.88;1.70;;;32.80;74.70;;;;;;5003943;28;20219;-85
2022/09/05 12:00:08;;;;;;;1.98;1.70;;;32.80;72.60;;;;;;4996433;28;20302;-84
2022/09/05 12:03:18;;;;;;;2.97;1.80;;;32.70;72.50;;;;;;4983419;28;20207;-84
2022/09/05 12:06:24;;;;;;;2.00;1.65;;;32.80;71.80;;;;;;4981914;28;20226;-85
2022/09/05 12:08:56;;;;;;;5.40;2.00;;;33.00;71.80;;;;;;4996569;28;20235;-86
2022/09/05 12:12:00;;;;;;;2.45;1.48;;;33.10;71.30;;;;;;4985413;28;21158;-85
2022/09/05 12:14:42;;;;;;;2.25;1.33;;;33.20;70.70;;;;;;4981846;28;20243;-85
2022/09/05 12:18:18;;;;;;;2.45;1.73;;;33.40;69.70;;;;;;4999026;28;20258;-85
2022/09/05 12:21:15;;;;;;;3.97;1.70;;;33.60;67.60;;;;;;4886486;29;20333;-83
2022/09/05 12:24:02;;;;;;;2.28;1.95;;;33.60;69.60;;;;;;4897949;29;20656;-84
2022/09/05 12:27:07;;;;;;;7.20;2.40;;;33.50;68.90;;;;;;4983273;28;20219;-83
2022/09/05 12:29:57;;;;;;;7.32;2.50;;;33.50;69.50;;;;;;4991774;28;21021;-85
2022/09/05 12:32:28;;;;;;;3.22;1.65;;;33.50;69.90;;;;;;4982846;28;20207;-84
2022/09/05 12:35:30;;;;;;;3.22;1.90;;;33.60;69.20;;;;;;4980055;28;20238;-85
2022/09/05 12:38:33;;;;;;;1.85;1.65;;;33.70;67.30;;;;;;4984705;28;20215;-84
2022/09/05 12:41:32;;;;;;;3.53;1.70;;;33.80;66.90;;;;;;4981575;28;20203;-84
2022/09/05 12:44:45;;;;;;;2.03;1.60;;;33.90;66.60;;;;;;4975207;28;20215;-84
2022/09/05 12:47:19;;;;;;;3.05;1.92;;;34.10;66.00;;;;;;4991878;28;20207;-83
2022/09/05 12:50:08;;;;;;;2.40;1.80;;;34.20;65.30;;;;;;4994132;28;20207;-85
2022/09/05 12:52:45;;;;;;;2.83;1.70;;;34.20;65.60;;;;;;4979319;28;20314;-83
2022/09/05 12:55:15;;;;;;;4.55;1.60;;;34.20;65.60;;;;;;4997907;28;20246;-84
2022/09/05 12:57:44;;;;;;;3.63;2.00;;;34.30;65.40;;;;;;4978619;28;20289;-84
2022/09/05 13:00:42;;;;;;;4.35;1.90;;;34.30;64.30;;;;;;4992334;28;20217;-85
2022/09/05 13:03:32;;;;;;;3.38;1.70;;;34.30;64.20;;;;;;4981182;28;20218;-85
2022/09/05 13:06:08;;;;;;;3.45;1.60;;;34.30;64.20;;;;;;4976658;28;20321;-84
2022/09/05 13:09:01;;;;;;;2.28;1.83;;;34.20;63.90;;;;;;4976199;28;20199;-84
2022/09/05 13:11:40;;;;;;;1.98;1.77;;;34.20;64.20;;;;;;4990904;28;20571;-83
2022/09/05 13:14:31;;;;;;;2.72;1.70;;;34.10;63.10;;;;;;4981048;28;20270;-85
2022/09/05 13:17:37;;;;;;;1.73;1.60;;;33.90;62.30;;;;;;4993489;28;20230;-84
2022/09/05 13:20:32;;;;;;;3.15;1.50;;;33.70;62.40;;;;;;4991276;28;20223;-86
2022/09/05 13:23:17;;;;;;;2.58;1.58;;;33.60;63.40;;;;;;4963129;28;20335;-85
2022/09/05 13:25:55;;;;;;;5.20;1.70;;;33.60;62.70;;;;;;4998150;28;20277;-84
2022/09/05 13:28:37;;;;;;;3.30;1.77;;;33.60;62.20;;;;;;4978040;28;20222;-85
2022/09/05 13:31:07;;;;;;;3.30;1.42;;;33.60;62.60;;;;;;4996897;28;20249;-84
2022/09/05 13:33:55;;;;;;;2.65;1.75;;;33.50;60.90;;;;;;4978214;28;20207;-84
2022/09/05 13:36:59;;;;;;;2.97;1.60;;;33.30;60.90;;;;;;4992095;28;21083;-83
2022/09/05 13:40:08;;;;;;;2.35;1.40;;;33.10;60.90;;;;;;4974834;28;20211;-84
2022/09/05 13:42:44;;;;;;;2.13;1.70;;;32.90;60.40;;;;;;4976270;28;20250;-83
2022/09/05 13:45:21;;;;;;;4.30;1.38;;;32.70;61.10;;;;;;4981356;28;20202;-85
2022/09/05 13:48:26;;;;;;;2.40;1.50;;;32.60;60.80;;;;;;4986380;28;20689;-83
2022/09/05 13:51:06;;;;;;;11.00;1.85;;;32.50;60.90;;;;;;4951767;28;20287;-84
2022/09/05 13:53:50;;;;;;;4.38;1.48;;;32.30;61.30;;;;;;4986227;28;20305;-84
2022/09/05 13:56:38;;;;;;;2.03;1.30;;;32.30;62.00;;;;;;4978721;28;20230;-85
2022/09/05 13:59:13;;;;;;;3.08;1.73;;;32.40;62.00;;;;;;4990090;28;20265;-83
2022/09/05 14:01:56;;;;;;;1.60;1.50;;;32.50;62.10;;;;;;4974828;28;20681;-84
2022/09/05 14:05:34;;;;;;;1.40;1.30;;;32.50;60.90;;;;;;4981013;28;20210;-84
2022/09/05 14:08:33;;;;;;;3.25;1.60;;;32.50;60.50;;;;;;4960049;28;20595;-86
2022/09/05 14:11:39;;;;;;;4.20;1.92;;;32.50;60.80;;;;;;4999549;28;20210;-84
2022/09/05 14:14:16;;;;;;;3.20;1.73;;;32.40;61.10;;;;;;5000056;28;20286;-85
2022/09/05 14:17:37;;;;;;;4.15;1.80;;;32.50;60.90;;;;;;4997086;28;20214;-85
2022/09/05 14:23:26;;;;;;;1.70;1.58;;;32.40;59.70;;;;;;5022213;28;20202;-85
2022/09/05 14:26:04;;;;;;;2.00;1.33;;;32.30;60.20;;;;;;4994974;28;20211;-86
2022/09/05 14:29:05;;;;;;;2.70;1.40;;;32.20;59.90;;;;;;5020474;28;20206;-86
2022/09/05 14:32:16;;;;;;;2.17;1.55;;;32.00;60.00;;;;;;5028645;28;20268;-87
2022/09/05 14:35:36;;;;;;;3.63;1.50;;;31.80;60.10;;;;;;5012240;28;20322;-85
2022/09/05 14:38:45;;;;;;;2.53;1.27;;;31.70;59.60;;;;;;4996722;28;20338;-85
2022/09/05 14:41:31;;;;;;;1.63;1.30;;;31.70;59.90;;;;;;4988074;28;20221;-86
2022/09/05 14:44:31;;;;;;;2.42;1.30;;;31.70;59.70;;;;;;4971797;28;20206;-86
2022/09/05 14:47:25;;;;;;;3.83;1.45;;;31.80;59.30;;;;;;4994839;28;20211;-85
2022/09/05 14:50:02;;;;;;;1.58;1.30;;;31.90;59.00;;;;;;4981874;28;20683;-84
2022/09/05 14:52:31;;;;;;;2.80;1.45;;;31.90;59.10;;;;;;4981190;28;20218;-84
2022/09/05 14:55:16;;;;;;;3.05;1.83;;;31.90;58.80;;;;;;4980051;28;20753;-84
2022/09/05 14:57:51;;;;;;;2.65;1.98;;;32.00;58.90;;;;;;4997574;28;20266;-84
2022/09/05 15:00:55;;;;;;;1.88;1.40;;;31.90;58.70;;;;;;4999301;28;20210;-84
2022/09/05 15:03:47;;;;;;;4.35;1.70;;;31.90;58.70;;;;;;5017652;28;20249;-83
2022/09/05 15:06:38;;;;;;;2.38;1.70;;;31.70;58.70;;;;;;4991541;28;20250;-85
2022/09/05 15:09:11;;;;;;;1.83;1.58;;;31.60;58.90;;;;;;5006424;28;20210;-85
2022/09/05 15:12:15;;;;;;;2.47;1.48;;;31.50;58.80;;;;;;5016633;28;20206;-84